DW6949 Weather Reports


Display with metric or nautical units.
time (UTC)temp
F
wind
direction
speed
MPH
gust
MPH
rain 1hr
in
rain 24hr
in
rain mn
in
humidity
%
barometer
mb
20201031130116 45 0 0.0 0.0 0.00 0.00 0.00 86 1024.0
20201031124621 45 0 0.0 0.0 0.00 0.00 0.00 86 1023.9
20201031123157 45 0 0.0 0.0 0.00 0.00 0.00 86 1023.9
20201031121725 45 0 0.0 0.0 0.00 0.00 0.00 86 1023.8
20201031120147 45 0 0.0 0.0 0.00 0.00 0.00 86 1023.8
20201031114653 45 0 0.0 0.0 0.00 0.00 0.00 86 1024.0
20201031113135 45 0 0.0 0.0 0.00 0.00 0.00 86 1023.7
20201031111653 45 0 0.0 0.0 0.00 0.00 0.00 86 1023.6
20201031110228 45 0 0.0 0.0 0.00 0.00 0.00 85 1023.7
20201031104702 45 0 0.0 0.0 0.00 0.00 0.00 85 1023.6
20201031103111 46 0 0.0 0.0 0.00 0.00 0.00 85 1023.5
20201031101608 46 0 0.0 0.0 0.00 0.00 0.00 85 1023.4
20201031100200 46 0 0.0 0.0 0.00 0.00 0.00 85 1023.5
20201031094619 46 0 0.0 0.0 0.00 0.00 0.00 85 1023.5
20201031093221 47 0 0.0 0.0 0.00 0.00 0.00 85 1023.4
20201031091715 47 0 0.0 0.0 0.00 0.00 0.00 85 1023.6
20201031090205 47 0 0.0 0.0 0.00 0.00 0.00 85 1023.5
20201031084639 47 0 0.0 0.0 0.00 0.00 0.00 84 1023.5
20201031083221 47 0 0.0 0.0 0.00 0.00 0.00 84 1023.6
20201031081647 47 0 0.0 0.0 0.00 0.00 0.00 84 1023.7
20201031080057 48 0 0.0 0.0 0.00 0.00 0.00 84 1023.7
20201031074608 48 0 0.0 0.0 0.00 0.00 0.00 84 1023.8
20201031073049 48 0 0.0 0.0 0.00 0.00 0.00 84 1023.8
20201031071546 48 0 0.0 0.0 0.00 0.00 0.00 83 1023.7
20201031070223 48 0 0.0 0.0 0.00 0.00 0.00 83 1023.8
20201031064631 49 0 0.0 0.0 0.00 0.00 0.00 83 1023.7
20201031063101 49 0 0.0 0.0 0.00 0.00 0.00 83 1023.8
20201031061655 49 0 0.0 0.0 0.00 0.00 0.00 82 1023.8
20201031060241 49 0 0.0 0.0 0.00 0.00 0.00 82 1023.8
20201031054643 50 0 0.0 0.0 0.00 0.00 0.00 81 1023.9
20201031053142 50 0 0.0 0.0 0.00 0.00 0.00 80 1024.0
20201031051634 50 0 0.0 0.0 0.00 0.00 0.00 80 1024.0
20201031050118 51 0 0.0 0.0 0.00 0.00 0.00 78 1024.1
20201031044635 51 0 0.0 0.0 0.00 0.00 0.00 78 1024.1
20201031043214 52 0 0.0 0.0 0.00 0.00 0.00 78 1024.1
20201031041558 52 0 0.0 0.0 0.00 0.00 0.00 76 1024.0
20201031040104 53 0 0.0 0.0 0.00 0.00 0.00 75 1024.0
20201031034612 53 0 0.0 0.0 0.00 0.00 0.00 73 1024.0
20201031033117 54 0 0.0 0.0 0.00 0.00 0.00 71 1023.7
20201031031657 55 0 0.0 0.0 0.00 0.00 0.00 72 1023.8
20201031030232 55 0 0.0 0.0 0.00 0.00 0.00 70 1023.6
20201031024614 56 0 0.0 0.0 0.00 0.00 0.00 70 1023.6
20201031023136 56 0 0.0 0.0 0.00 0.00 0.00 69 1023.5
20201031021601 56 0 0.0 0.0 0.00 0.00 0.00 69 1023.5
20201031020132 56 0 0.0 0.0 0.00 0.00 0.00 68 1023.4
20201031014607 57 0 0.0 0.0 0.00 0.00 0.00 66 1023.4
20201031013123 58 0 0.0 0.0 0.00 0.00 0.00 65 1023.2
20201031011700 58 0 0.0 0.0 0.00 0.00 0.00 63 1023.1
20201031010131 59 0 0.0 0.0 0.00 0.00 0.00 62 1023.0
20201031004726 60 0 0.0 0.0 0.00 0.00 0.00 61 1022.9
20201031003108 61 0 0.0 0.0 0.00 0.00 0.00 59 1022.9
20201031001613 62 0 0.0 0.0 0.00 0.00 0.00 58 1022.8
20201031000141 63 0 0.0 0.0 0.00 0.00 0.00 55 1022.7
20201030234607 64 0 0.0 0.0 0.00 0.00 0.00 52 1022.7
20201030233201 65 0 0.0 0.0 0.00 0.00 0.00 51 1022.7
20201030231649 66 0 0.0 0.0 0.00 0.00 0.00 49 1022.7
20201030230055 66 0 0.0 2.0 0.00 0.00 0.00 48 1022.6
20201030224613 67 0 0.0 2.0 0.00 0.00 0.00 47 1022.7
20201030223155 68 0 0.0 2.0 0.00 0.00 0.00 46 1022.7
20201030221745 68 0 0.0 1.0 0.00 0.00 0.00 45 1022.8
20201030220107 68 0 0.0 2.0 0.00 0.00 0.00 47 1022.8
20201030214605 68 0 0.0 3.0 0.00 0.00 0.00 46 1022.9
20201030213210 68 0 0.0 5.0 0.00 0.00 0.00 46 1022.9
20201030211623 68 0 0.0 2.0 0.00 0.00 0.00 46 1023.0
20201030210204 67 0 0.0 2.0 0.00 0.00 0.00 46 1023.1
20201030204603 67 0 0.0 2.0 0.00 0.00 0.00 48 1023.2
20201030203408 67 276 0.0 2.0 0.00 0.00 0.00 50 1023.4
20201030201743 66 0 0.0 7.0 0.00 0.00 0.00 50 1023.5
20201030200151 66 247 0.0 4.0 0.00 0.00 0.00 51 1023.8
20201030194645 65 0 2.0 7.0 0.00 0.00 0.00 52 1024.0
20201030193157 66 0 0.0 4.0 0.00 0.00 0.00 53 1024.1
20201030191635 65 0 0.0 6.0 0.00 0.00 0.00 53 1024.3
20201030190146 65 0 1.0 6.0 0.00 0.00 0.00 53 1024.5
20201030184641 65 0 0.0 3.0 0.00 0.00 0.00 56 1024.7
20201030183105 65 0 1.0 4.0 0.00 0.00 0.00 57 1025.1
20201030181736 64 49 0.0 4.0 0.00 0.00 0.00 60 1025.3
20201030180203 62 0 0.0 7.0 0.00 0.00 0.00 60 1025.7
20201030174732 62 120 0.0 7.0 0.00 0.00 0.00 62 1025.9
20201030173251 62 134 1.0 8.0 0.00 0.00 0.00 61 1026.2
20201030171631 62 54 4.0 9.0 0.00 0.00 0.00 63 1026.5
20201030170103 61 55 4.0 7.0 0.00 0.00 0.00 65 1026.7
20201030164634 60 0 3.0 6.0 0.00 0.00 0.00 66 1026.8
20201030163104 59 0 3.0 6.0 0.00 0.00 0.00 67 1026.8
20201030161634 59 19 3.0 9.0 0.00 0.00 0.00 69 1026.8
20201030160215 58 19 3.0 9.0 0.00 0.00 0.00 71 1026.8
20201030154610 57 351 3.0 9.0 0.00 0.00 0.00 72 1026.9
20201030153219 56 38 4.0 9.0 0.00 0.00 0.00 74 1026.9
20201030151611 56 360 3.0 9.0 0.00 0.00 0.00 77 1026.9
20201030150124 54 352 0.0 5.0 0.00 0.00 0.00 80 1026.9
20201030144721 52 335 1.0 5.0 0.00 0.00 0.00 81 1026.7
20201030143118 51 0 0.0 6.0 0.00 0.00 0.00 83 1026.4
20201030141619 50 0 2.0 6.0 0.00 0.00 0.00 84 1026.2
20201030140128 48 288 0.0 3.0 0.00 0.00 0.00 86 1026.0
20201030134709 47 277 0.0 3.0 0.00 0.00 0.00 86 1025.7
20201030133127 46 0 0.0 0.0 0.00 0.00 0.00 86 1025.6
20201030131549 45 0 0.0 0.0 0.00 0.00 0.00 86 1025.5